Time;durP1;ratioP1;P1;durP2;ratioP2;P2;SDS_P1;SDS_P2;PMS_P1;PMS_P2;Temp;Humidity;BMP_temperature;BMP_pressure;BME280_temperature;BME280_humidity;BME280_pressure;Samples;Min_cycle;Max_cycle;Signal;HPM_P1;HPM_P2
2021/12/09 00:01:01;;;;;;;4.78;3.42;;;15.20;71.30;;;;;;4226840;27;20051;-59
2021/12/09 00:03:27;;;;;;;8.32;3.80;;;15.20;71.70;;;;;;4226417;27;20140;-59
2021/12/09 00:05:50;;;;;;;8.10;4.00;;;15.20;72.00;;;;;;4226767;27;20073;-59
2021/12/09 00:08:12;;;;;;;6.53;3.72;;;15.30;71.80;;;;;;4212513;28;20044;-59
2021/12/09 00:10:35;;;;;;;6.90;3.35;;;15.40;71.50;;;;;;4209593;28;20139;-60
2021/12/09 00:12:57;;;;;;;4.80;3.40;;;15.40;71.10;;;;;;4218389;28;20404;-59
2021/12/09 00:15:19;;;;;;;4.38;3.03;;;15.40;70.80;;;;;;4209830;28;20056;-60
2021/12/09 00:17:41;;;;;;;7.82;3.60;;;15.50;70.70;;;;;;4218236;28;20528;-60
2021/12/09 00:20:05;;;;;;;7.80;3.80;;;15.50;70.60;;;;;;4226297;27;20063;-60
2021/12/09 00:22:27;;;;;;;7.55;3.85;;;15.50;70.10;;;;;;4225769;27;20538;-60
2021/12/09 00:24:49;;;;;;;7.32;3.72;;;15.60;70.00;;;;;;4225765;27;20059;-61
2021/12/09 00:27:12;;;;;;;5.97;3.50;;;15.60;69.90;;;;;;4221470;27;20044;-61
2021/12/09 00:29:34;;;;;;;7.75;3.85;;;15.60;69.70;;;;;;4209469;28;20052;-60
2021/12/09 00:31:56;;;;;;;6.25;3.35;;;15.60;69.80;;;;;;4209536;28;20047;-60
2021/12/09 00:34:20;;;;;;;5.38;3.88;;;15.60;70.00;;;;;;4209214;28;20135;-61
2021/12/09 00:36:55;;;;;;;8.75;3.85;;;15.60;69.90;;;;;;4209595;28;20142;-61
2021/12/09 00:39:18;;;;;;;9.98;3.72;;;15.50;69.80;;;;;;4208932;28;20051;-61
2021/12/09 00:41:40;;;;;;;6.32;3.70;;;15.50;70.00;;;;;;4209171;28;20524;-60
2021/12/09 00:44:02;;;;;;;6.60;3.83;;;15.50;70.10;;;;;;4213684;27;20047;-59
2021/12/09 00:46:24;;;;;;;9.50;4.07;;;15.50;70.20;;;;;;4225789;27;20051;-59
2021/12/09 00:48:46;;;;;;;7.45;3.85;;;15.40;70.60;;;;;;4208915;28;20134;-59
2021/12/09 00:51:09;;;;;;;8.27;4.20;;;15.50;70.50;;;;;;4208896;28;20135;-58
2021/12/09 00:53:33;;;;;;;5.95;3.50;;;15.50;70.20;;;;;;4209047;28;20493;-59
2021/12/09 00:55:56;;;;;;;6.32;3.83;;;15.50;70.20;;;;;;4209033;28;20043;-59
2021/12/09 00:58:18;;;;;;;6.63;4.43;;;15.50;70.40;;;;;;4222495;27;20058;-58
2021/12/09 01:00:40;;;;;;;9.23;3.72;;;15.60;70.00;;;;;;4224997;28;20556;-59
2021/12/09 01:03:02;;;;;;;9.35;3.80;;;15.70;69.60;;;;;;4225681;28;20044;-60
2021/12/09 01:05:25;;;;;;;7.43;4.57;;;15.70;69.20;;;;;;4221893;28;20131;-58
2021/12/09 01:07:47;;;;;;;7.22;4.10;;;15.80;69.00;;;;;;4208777;28;20399;-59
2021/12/09 01:10:15;;;;;;;8.10;4.05;;;15.80;69.00;;;;;;4208474;28;20380;-60
2021/12/09 01:12:37;;;;;;;6.57;3.92;;;15.90;68.60;;;;;;4208789;28;20044;-61
2021/12/09 01:15:00;;;;;;;6.13;3.67;;;15.90;68.50;;;;;;4208836;28;20040;-59
2021/12/09 01:17:22;;;;;;;6.05;4.32;;;16.00;68.40;;;;;;4208267;28;20491;-63
2021/12/09 01:19:44;;;;;;;7.82;3.83;;;16.00;68.20;;;;;;4208699;28;20048;-64
2021/12/09 01:22:07;;;;;;;7.50;4.03;;;16.00;68.00;;;;;;4208509;28;20470;-59
2021/12/09 01:24:29;;;;;;;5.97;4.03;;;16.00;67.80;;;;;;4208694;28;20052;-59
2021/12/09 01:26:53;;;;;;;6.68;3.90;;;16.00;67.90;;;;;;4208996;28;20548;-59
2021/12/09 01:29:18;;;;;;;5.47;3.65;;;16.00;68.00;;;;;;4208653;28;20055;-59
2021/12/09 01:31:43;;;;;;;7.38;4.18;;;16.00;68.90;;;;;;4208872;28;20055;-59
2021/12/09 01:34:08;;;;;;;6.85;4.05;;;16.00;67.90;;;;;;4216324;28;20057;-59
2021/12/09 01:36:31;;;;;;;5.82;3.80;;;15.90;68.00;;;;;;4211670;28;20044;-59
2021/12/09 01:38:54;;;;;;;7.03;3.95;;;16.00;68.40;;;;;;4211572;28;20052;-59
2021/12/09 01:41:16;;;;;;;5.88;4.20;;;16.00;68.30;;;;;;4211810;28;20048;-60
2021/12/09 01:43:39;;;;;;;6.40;3.63;;;16.00;68.10;;;;;;4211838;28;20102;-59
2021/12/09 01:46:07;;;;;;;6.32;4.50;;;16.10;67.80;;;;;;4221576;27;20089;-59
2021/12/09 01:48:29;;;;;;;6.88;4.35;;;16.10;67.70;;;;;;4228452;27;20043;-60
2021/12/09 01:50:51;;;;;;;7.05;3.55;;;16.20;67.80;;;;;;4227943;27;20052;-59
2021/12/09 01:53:13;;;;;;;5.65;4.32;;;16.30;67.50;;;;;;4228660;27;20122;-59
2021/12/09 01:55:35;;;;;;;7.38;4.10;;;16.40;66.90;;;;;;4222434;28;20051;-59
2021/12/09 01:57:58;;;;;;;4.60;3.95;;;16.40;66.50;;;;;;4211920;28;20072;-59
2021/12/09 02:00:24;;;;;;;6.68;4.13;;;16.40;66.30;;;;;;4211744;28;20059;-60
2021/12/09 02:02:47;;;;;;;7.68;4.10;;;16.40;66.20;;;;;;4211604;28;20097;-63
2021/12/09 02:05:19;;;;;;;6.28;4.03;;;16.30;66.40;;;;;;4214638;27;20155;-64
2021/12/09 02:07:41;;;;;;;5.90;4.53;;;16.30;66.90;;;;;;4227527;27;20054;-61
2021/12/09 02:10:05;;;;;;;7.57;4.20;;;16.30;66.90;;;;;;4228583;28;20050;-66
2021/12/09 02:12:28;;;;;;;9.05;4.68;;;16.30;66.80;;;;;;4228325;27;20127;-60
2021/12/09 02:14:52;;;;;;;6.47;4.30;;;16.30;66.80;;;;;;4228302;27;20058;-59
2021/12/09 02:17:16;;;;;;;5.47;4.63;;;16.30;66.80;;;;;;4226356;27;20142;-59
2021/12/09 02:19:42;;;;;;;6.25;4.10;;;16.30;66.70;;;;;;4209805;28;20043;-60
2021/12/09 02:22:06;;;;;;;7.93;4.13;;;16.20;66.60;;;;;;4211090;28;20047;-59
2021/12/09 02:24:27;;;;;;;7.03;4.70;;;16.20;66.80;;;;;;4211153;28;20128;-60
2021/12/09 02:26:51;;;;;;;6.05;4.05;;;16.10;67.20;;;;;;4226024;27;20050;-59
2021/12/09 02:29:15;;;;;;;7.28;4.65;;;16.10;67.40;;;;;;4227993;27;20127;-60
2021/12/09 02:31:37;;;;;;;7.80;4.13;;;16.10;67.70;;;;;;4227647;27;20054;-59
2021/12/09 02:34:00;;;;;;;11.73;4.07;;;16.20;67.60;;;;;;4227978;27;20051;-58
2021/12/09 02:36:23;;;;;;;6.35;4.18;;;16.20;67.30;;;;;;4213595;28;20067;-59
2021/12/09 02:38:48;;;;;;;6.35;4.72;;;16.20;67.10;;;;;;4210992;28;20067;-59
2021/12/09 02:41:14;;;;;;;7.53;4.63;;;16.30;67.30;;;;;;4211514;27;20052;-59
2021/12/09 02:43:37;;;;;;;7.63;4.95;;;16.30;67.10;;;;;;4210560;28;20066;-58
2021/12/09 02:46:00;;;;;;;5.45;4.22;;;16.40;66.80;;;;;;4219778;28;20059;-59
2021/12/09 02:48:23;;;;;;;8.43;4.38;;;16.50;66.20;;;;;;4227028;27;20105;-59
2021/12/09 02:50:45;;;;;;;4.90;4.35;;;16.50;65.80;;;;;;4227966;27;20545;-59
2021/12/09 02:53:07;;;;;;;6.05;4.68;;;16.50;65.50;;;;;;4226027;28;20056;-59
2021/12/09 02:55:31;;;;;;;6.40;4.55;;;16.50;65.60;;;;;;4218844;27;20059;-59
2021/12/09 02:57:53;;;;;;;8.63;5.05;;;16.40;65.90;;;;;;4221566;27;20398;-59
2021/12/09 03:00:16;;;;;;;7.28;4.72;;;16.40;66.20;;;;;;4225956;27;20048;-59
2021/12/09 03:02:38;;;;;;;5.53;3.95;;;16.40;66.20;;;;;;4222416;27;20044;-59
2021/12/09 03:05:02;;;;;;;7.35;5.18;;;16.30;66.50;;;;;;4210784;28;20073;-59
2021/12/09 03:07:29;;;;;;;6.88;4.15;;;16.30;66.70;;;;;;4210839;28;20134;-59
2021/12/09 03:09:54;;;;;;;7.57;4.63;;;16.30;66.50;;;;;;4210488;28;20504;-59
2021/12/09 03:12:21;;;;;;;10.60;5.03;;;16.30;66.40;;;;;;4211960;28;20488;-59
2021/12/09 03:14:43;;;;;;;6.40;5.10;;;16.20;66.40;;;;;;4211414;28;20446;-60
2021/12/09 03:17:05;;;;;;;9.80;4.53;;;16.20;66.60;;;;;;4210279;28;20079;-60
2021/12/09 03:19:27;;;;;;;6.65;4.60;;;16.10;66.80;;;;;;4210536;28;20052;-59
2021/12/09 03:21:50;;;;;;;7.68;5.00;;;16.10;66.90;;;;;;4210547;28;20044;-59
2021/12/09 03:24:14;;;;;;;7.93;5.57;;;16.20;67.20;;;;;;4208852;28;20047;-59
2021/12/09 03:26:41;;;;;;;7.85;5.05;;;16.20;67.10;;;;;;4209662;28;20040;-59
2021/12/09 03:29:08;;;;;;;5.55;4.40;;;16.20;67.00;;;;;;4207912;28;20052;-59
2021/12/09 03:31:30;;;;;;;7.38;4.97;;;16.30;66.80;;;;;;4225222;27;20109;-59
2021/12/09 03:33:52;;;;;;;5.57;4.38;;;16.40;66.40;;;;;;4210422;28;20408;-59
2021/12/09 03:36:16;;;;;;;7.35;4.97;;;16.50;66.00;;;;;;4209441;28;20459;-59
2021/12/09 03:38:38;;;;;;;10.25;4.97;;;16.50;65.60;;;;;;4210297;28;20047;-59
2021/12/09 03:41:00;;;;;;;8.85;4.78;;;16.50;65.40;;;;;;4213810;27;20043;-59
2021/12/09 03:43:23;;;;;;;6.13;4.63;;;16.40;65.50;;;;;;4227042;28;20044;-58
2021/12/09 03:45:47;;;;;;;8.13;4.88;;;16.40;66.00;;;;;;4226709;27;20042;-59
2021/12/09 03:48:09;;;;;;;12.02;5.82;;;16.30;66.80;;;;;;4226080;27;20440;-59
2021/12/09 03:50:31;;;;;;;8.57;5.07;;;16.30;66.40;;;;;;4226711;27;20047;-60
2021/12/09 03:52:53;;;;;;;7.65;5.20;;;16.30;66.70;;;;;;4210040;28;20051;-59
2021/12/09 03:55:15;;;;;;;12.13;6.30;;;16.30;66.60;;;;;;4209788;28;20508;-59
2021/12/09 03:57:37;;;;;;;12.32;5.13;;;16.20;66.50;;;;;;4209992;28;20052;-59
2021/12/09 03:59:59;;;;;;;8.90;5.60;;;16.20;66.50;;;;;;4225482;27;20096;-58
2021/12/09 04:02:23;;;;;;;8.50;5.22;;;16.10;66.50;;;;;;4226528;28;20063;-59
2021/12/09 04:04:46;;;;;;;9.93;5.35;;;16.10;66.40;;;;;;4212688;27;20051;-59
2021/12/09 04:07:08;;;;;;;7.85;5.18;;;16.00;66.90;;;;;;4209907;28;20051;-59
2021/12/09 04:09:30;;;;;;;9.98;5.40;;;16.00;67.00;;;;;;4222351;27;20054;-59
2021/12/09 04:11:52;;;;;;;7.72;5.82;;;15.90;67.20;;;;;;4225955;27;20046;-59
2021/12/09 04:14:15;;;;;;;10.98;5.22;;;15.90;67.70;;;;;;4226220;28;20047;-59
2021/12/09 04:16:38;;;;;;;7.55;5.50;;;15.90;68.00;;;;;;4226466;28;20052;-59
2021/12/09 04:19:01;;;;;;;9.95;5.43;;;15.90;67.70;;;;;;4217906;28;20047;-59
2021/12/09 04:21:23;;;;;;;7.85;5.68;;;15.90;67.40;;;;;;4221981;27;20073;-59
2021/12/09 04:23:45;;;;;;;8.27;5.38;;;15.90;67.40;;;;;;4226472;28;20051;-59
2021/12/09 04:26:10;;;;;;;9.18;5.85;;;16.00;67.20;;;;;;4226305;28;20155;-59
2021/12/09 04:28:33;;;;;;;11.18;5.55;;;16.00;67.10;;;;;;4219417;28;20383;-59
2021/12/09 04:30:55;;;;;;;7.93;6.07;;;16.00;67.00;;;;;;4208823;28;20062;-59
2021/12/09 04:33:18;;;;;;;8.05;5.13;;;15.90;67.00;;;;;;4209412;28;20089;-60
2021/12/09 04:35:41;;;;;;;8.38;5.38;;;15.90;67.10;;;;;;4209441;28;20047;-58
2021/12/09 04:38:04;;;;;;;8.27;5.43;;;15.90;67.20;;;;;;4218194;27;20127;-59
2021/12/09 04:40:26;;;;;;;7.18;5.00;;;15.90;67.50;;;;;;4225091;27;20066;-59
2021/12/09 04:42:48;;;;;;;8.18;5.35;;;16.00;67.50;;;;;;4226103;27;20059;-59
2021/12/09 04:45:11;;;;;;;6.80;5.53;;;16.00;67.10;;;;;;4225847;27;20498;-59
2021/12/09 04:47:35;;;;;;;8.05;5.07;;;16.10;66.70;;;;;;4224319;27;20046;-60
2021/12/09 04:49:57;;;;;;;10.90;5.28;;;16.10;66.50;;;;;;4209092;28;20245;-59
2021/12/09 04:52:21;;;;;;;10.45;5.47;;;16.10;66.10;;;;;;4208935;28;20156;-59
2021/12/09 04:54:43;;;;;;;11.13;5.28;;;16.10;65.80;;;;;;4222190;28;20134;-59
2021/12/09 04:57:05;;;;;;;11.25;5.88;;;16.10;65.80;;;;;;4225993;28;20052;-59
2021/12/09 04:59:27;;;;;;;10.93;5.50;;;16.00;66.20;;;;;;4209330;28;20048;-59
2021/12/09 05:01:50;;;;;;;7.88;5.30;;;16.10;67.20;;;;;;4208646;28;20070;-59
2021/12/09 05:04:12;;;;;;;9.43;5.97;;;16.10;66.30;;;;;;4208840;28;20401;-58
2021/12/09 05:06:35;;;;;;;9.60;5.45;;;16.20;66.20;;;;;;4208688;28;20058;-59
2021/12/09 05:09:05;;;;;;;14.25;6.28;;;16.30;65.90;;;;;;4210855;28;20040;-59
2021/12/09 05:11:47;;;;;;;13.02;6.28;;;16.40;65.40;;;;;;4222742;28;20047;-59
2021/12/09 05:14:09;;;;;;;8.75;5.50;;;16.50;65.20;;;;;;4225222;28;20406;-59
2021/12/09 05:16:33;;;;;;;12.00;6.47;;;16.50;64.90;;;;;;4225479;28;20055;-59
2021/12/09 05:18:58;;;;;;;7.90;5.57;;;16.50;64.80;;;;;;4211343;28;20036;-58
2021/12/09 05:21:21;;;;;;;9.07;5.65;;;16.50;65.00;;;;;;4208838;28;20082;-59
2021/12/09 05:23:44;;;;;;;8.55;5.30;;;16.50;65.20;;;;;;4208702;28;20072;-59
2021/12/09 05:26:09;;;;;;;9.88;6.15;;;16.40;64.80;;;;;;4208462;28;20051;-58
2021/12/09 05:28:38;;;;;;;9.25;5.60;;;16.40;64.90;;;;;;4221439;28;20116;-58
2021/12/09 05:33:41;;;;;;;5.82;5.22;;;16.40;65.20;;;;;;4225083;28;20410;-59
2021/12/09 05:36:05;;;;;;;9.30;5.70;;;16.30;65.30;;;;;;4225450;28;20048;-58
2021/12/09 05:38:28;;;;;;;5.85;4.88;;;16.20;65.30;;;;;;4213132;28;20109;-59
2021/12/09 05:40:50;;;;;;;8.10;5.47;;;16.20;65.70;;;;;;4208433;28;20056;-58
2021/12/09 05:43:13;;;;;;;10.68;6.28;;;16.10;65.80;;;;;;4215129;28;20108;-58
2021/12/09 05:45:36;;;;;;;7.68;5.07;;;16.10;65.90;;;;;;4225233;28;20078;-59
2021/12/09 05:47:58;;;;;;;11.45;5.80;;;16.00;66.00;;;;;;4217187;28;20463;-59
2021/12/09 05:50:20;;;;;;;8.07;5.28;;;15.90;66.10;;;;;;4207983;28;20052;-59
2021/12/09 05:52:42;;;;;;;7.32;5.85;;;15.90;66.50;;;;;;4208495;28;20549;-58
2021/12/09 05:55:06;;;;;;;6.97;5.00;;;15.90;66.90;;;;;;4208318;28;20044;-59
2021/12/09 05:57:28;;;;;;;10.20;5.90;;;15.80;68.30;;;;;;4211453;28;20094;-59
2021/12/09 05:59:54;;;;;;;7.50;5.50;;;15.90;67.40;;;;;;4216446;28;20502;-58
2021/12/09 06:02:18;;;;;;;7.72;5.75;;;16.00;66.90;;;;;;4208113;28;20044;-58
2021/12/09 06:04:40;;;;;;;13.18;6.40;;;16.10;66.60;;;;;;4209338;28;20403;-59
2021/12/09 06:07:02;;;;;;;8.50;5.55;;;16.20;66.30;;;;;;4208097;28;20117;-59
2021/12/09 06:09:24;;;;;;;5.78;4.93;;;16.30;65.80;;;;;;4207956;28;20044;-58
2021/12/09 06:11:49;;;;;;;8.13;5.78;;;16.40;65.40;;;;;;4208168;28;20055;-58
2021/12/09 06:14:11;;;;;;;10.00;5.90;;;16.40;65.10;;;;;;4212524;28;20147;-59
2021/12/09 06:16:35;;;;;;;6.38;5.28;;;16.40;65.10;;;;;;4213785;28;20048;-59
2021/12/09 06:18:58;;;;;;;7.70;6.20;;;16.30;65.20;;;;;;4208222;28;20055;-59
2021/12/09 06:21:20;;;;;;;10.60;6.22;;;16.30;65.60;;;;;;4208383;28;20494;-59
2021/12/09 06:23:42;;;;;;;6.95;5.32;;;16.30;65.80;;;;;;4211148;28;20109;-59
2021/12/09 06:26:06;;;;;;;11.38;5.65;;;16.30;65.60;;;;;;4211546;28;20044;-59
2021/12/09 06:28:28;;;;;;;11.25;6.10;;;16.30;65.30;;;;;;4211541;28;20562;-59
2021/12/09 06:30:50;;;;;;;9.75;6.00;;;16.30;65.20;;;;;;4210594;28;20151;-58
2021/12/09 06:33:14;;;;;;;10.38;6.30;;;16.30;65.30;;;;;;4210944;28;20484;-59
2021/12/09 06:35:38;;;;;;;7.68;6.10;;;16.30;65.20;;;;;;4211056;28;20066;-59
2021/12/09 06:38:00;;;;;;;7.40;5.50;;;16.20;65.50;;;;;;4211190;28;20080;-59
2021/12/09 06:40:24;;;;;;;11.95;6.38;;;16.20;65.40;;;;;;4211183;28;20056;-59
2021/12/09 06:42:47;;;;;;;8.40;5.70;;;16.20;65.60;;;;;;4211149;28;20062;-60
2021/12/09 06:45:11;;;;;;;9.77;5.55;;;16.20;65.90;;;;;;4210632;28;20442;-60
2021/12/09 06:47:33;;;;;;;9.57;5.97;;;16.20;65.90;;;;;;4210103;28;20052;-60
2021/12/09 06:49:57;;;;;;;8.48;6.25;;;16.20;65.80;;;;;;4210354;28;20048;-60
2021/12/09 06:52:19;;;;;;;8.40;6.30;;;16.20;65.60;;;;;;4210187;28;20514;-60
2021/12/09 06:54:41;;;;;;;10.75;6.55;;;16.10;65.90;;;;;;4210805;28;20044;-60
2021/12/09 06:57:03;;;;;;;7.97;6.20;;;16.10;65.90;;;;;;4210723;28;20048;-60
2021/12/09 06:59:26;;;;;;;8.27;5.88;;;16.10;66.10;;;;;;4210139;28;20097;-59
2021/12/09 07:01:48;;;;;;;12.65;6.72;;;16.10;67.10;;;;;;4208552;28;20040;-59
2021/12/09 07:04:10;;;;;;;9.15;6.03;;;16.00;66.20;;;;;;4209452;28;20044;-59
2021/12/09 07:06:33;;;;;;;10.55;5.80;;;16.00;66.20;;;;;;4206809;28;20487;-60
2021/12/09 07:08:59;;;;;;;9.68;6.15;;;16.00;66.20;;;;;;4210213;28;20055;-60
2021/12/09 07:11:22;;;;;;;11.88;6.47;;;15.90;66.30;;;;;;4210678;28;20183;-60
2021/12/09 07:13:45;;;;;;;10.02;6.10;;;15.90;66.40;;;;;;4210453;28;20101;-60
2021/12/09 07:16:08;;;;;;;10.85;7.07;;;15.90;67.10;;;;;;4210595;28;20051;-60
2021/12/09 07:18:30;;;;;;;8.02;5.78;;;15.90;67.30;;;;;;4208837;28;20040;-60
2021/12/09 07:20:52;;;;;;;8.55;6.28;;;15.90;67.10;;;;;;4214841;27;20127;-60
2021/12/09 07:23:16;;;;;;;7.50;6.28;;;16.00;67.00;;;;;;4216649;27;20048;-60
2021/12/09 07:25:38;;;;;;;8.50;6.30;;;16.10;66.50;;;;;;4224209;27;20510;-60
2021/12/09 07:28:00;;;;;;;10.35;6.30;;;16.20;66.20;;;;;;4208010;28;20127;-60
2021/12/09 07:30:24;;;;;;;8.18;5.55;;;16.20;65.70;;;;;;4207961;28;20056;-60
2021/12/09 07:32:46;;;;;;;9.60;6.00;;;16.20;65.60;;;;;;4207895;28;20048;-60
2021/12/09 07:35:10;;;;;;;11.07;5.82;;;16.20;66.80;;;;;;4207050;28;20130;-62
2021/12/09 07:37:33;;;;;;;11.15;6.05;;;16.30;65.90;;;;;;4224014;27;20055;-60
2021/12/09 07:39:56;;;;;;;10.02;6.43;;;16.40;65.50;;;;;;4209481;28;20056;-60
2021/12/09 07:42:19;;;;;;;10.27;5.57;;;16.50;64.90;;;;;;4216901;28;20386;-60
2021/12/09 07:44:41;;;;;;;10.52;6.78;;;16.60;65.50;;;;;;4224623;28;20410;-60
2021/12/09 07:47:04;;;;;;;25.15;6.05;;;16.50;64.40;;;;;;4218726;27;20039;-60
2021/12/09 07:49:27;;;;;;;11.27;6.95;;;16.50;64.70;;;;;;4223467;27;20047;-61
2021/12/09 07:51:49;;;;;;;10.23;6.70;;;16.50;64.60;;;;;;4223883;28;20071;-61
2021/12/09 07:54:11;;;;;;;12.68;6.68;;;16.60;64.90;;;;;;4223505;27;20055;-61
2021/12/09 07:56:35;;;;;;;7.70;6.28;;;16.70;64.80;;;;;;4223608;27;20447;-61
2021/12/09 07:58:57;;;;;;;13.80;7.30;;;17.10;64.00;;;;;;4212466;28;20381;-61
2021/12/09 08:01:19;;;;;;;9.75;6.25;;;17.50;62.60;;;;;;4222479;27;20056;-61
2021/12/09 08:03:42;;;;;;;11.77;6.80;;;17.90;62.10;;;;;;4222454;28;20089;-61
2021/12/09 08:06:05;;;;;;;8.63;6.30;;;18.20;59.80;;;;;;4221560;27;20047;-61
2021/12/09 08:08:27;;;;;;;8.43;6.30;;;18.50;58.90;;;;;;4218558;28;20479;-61
2021/12/09 08:10:49;;;;;;;11.00;5.90;;;18.70;58.20;;;;;;4215253;28;20058;-60
2021/12/09 08:13:13;;;;;;;7.82;5.82;;;18.80;57.90;;;;;;4207496;28;20462;-60
2021/12/09 08:15:45;;;;;;;13.93;6.65;;;18.80;57.90;;;;;;4214092;28;20050;-62
2021/12/09 08:18:26;;;;;;;11.32;6.82;;;18.70;58.10;;;;;;4207649;28;20437;-67
2021/12/09 08:20:48;;;;;;;;;;;18.60;58.40;;;;;;4211320;28;20093;-61
2021/12/09 08:23:11;;;;;;;10.88;6.63;;;18.50;58.90;;;;;;4223392;28;19923;-65
2021/12/09 08:25:33;;;;;;;12.57;6.30;;;18.40;59.10;;;;;;4218385;27;20061;-62
2021/12/09 08:27:55;;;;;;;9.90;6.28;;;18.40;59.10;;;;;;4206797;28;20051;-59
2021/12/09 08:30:22;;;;;;;9.00;6.05;;;18.40;59.20;;;;;;4207091;28;20050;-61
2021/12/09 08:33:05;;;;;;;7.95;5.57;;;18.40;59.10;;;;;;4212921;28;20063;-59
2021/12/09 08:35:27;;;;;;;10.50;5.80;;;18.30;59.20;;;;;;4210298;28;20052;-60
2021/12/09 08:37:50;;;;;;;7.70;5.45;;;18.30;59.30;;;;;;4213360;27;20043;-60
2021/12/09 08:40:14;;;;;;;11.30;6.70;;;18.30;60.10;;;;;;4207090;28;20050;-59
2021/12/09 08:42:37;;;;;;;13.00;6.70;;;18.20;59.30;;;;;;4211536;28;20048;-63
2021/12/09 08:45:00;;;;;;;8.45;5.93;;;18.10;59.70;;;;;;4214485;28;20048;-60
2021/12/09 08:47:23;;;;;;;9.20;5.70;;;18.10;59.90;;;;;;4209255;28;20048;-61
2021/12/09 08:49:45;;;;;;;12.77;6.03;;;18.10;59.60;;;;;;4216362;27;20131;-60
2021/12/09 08:52:07;;;;;;;10.10;5.75;;;18.10;59.90;;;;;;4216589;28;20047;-60
2021/12/09 08:54:30;;;;;;;12.15;6.57;;;18.00;60.40;;;;;;4207474;28;20074;-62
2021/12/09 08:56:52;;;;;;;7.72;6.20;;;18.00;60.70;;;;;;4207057;28;20156;-61
2021/12/09 08:59:14;;;;;;;8.88;6.20;;;18.00;61.00;;;;;;4221208;27;20051;-61
2021/12/09 09:01:56;;;;;;;9.68;6.10;;;18.00;60.90;;;;;;4211875;28;20406;-61
2021/12/09 09:04:20;;;;;;;8.48;5.43;;;18.00;60.70;;;;;;4222903;28;20422;-61
2021/12/09 09:06:50;;;;;;;10.52;5.93;;;18.10;60.60;;;;;;4191626;28;20044;-61
2021/12/09 09:09:12;;;;;;;9.88;5.72;;;18.10;60.30;;;;;;4189319;28;20048;-60
2021/12/09 09:11:34;;;;;;;11.20;5.72;;;18.10;60.40;;;;;;4201633;27;20048;-60
2021/12/09 09:13:56;;;;;;;8.65;5.65;;;18.20;60.40;;;;;;4204900;27;20458;-60
2021/12/09 09:16:19;;;;;;;9.43;5.60;;;18.20;60.20;;;;;;4198117;27;20060;-60
2021/12/09 09:18:41;;;;;;;7.20;5.57;;;18.20;60.10;;;;;;4202385;27;20121;-60
2021/12/09 09:21:05;;;;;;;10.07;5.30;;;18.20;60.10;;;;;;4198959;27;20131;-60
2021/12/09 09:23:27;;;;;;;12.68;5.88;;;18.20;60.10;;;;;;4207131;27;20125;-60
2021/12/09 09:25:49;;;;;;;8.75;5.80;;;18.10;60.20;;;;;;4206635;28;20511;-60
2021/12/09 09:28:11;;;;;;;10.98;5.72;;;18.10;60.30;;;;;;4219906;27;20035;-60
2021/12/09 09:30:36;;;;;;;10.13;5.60;;;18.10;60.50;;;;;;4211184;27;20138;-61
2021/12/09 09:32:58;;;;;;;9.52;5.72;;;18.10;60.50;;;;;;4222838;27;20581;-60
2021/12/09 09:35:21;;;;;;;12.70;5.85;;;18.10;60.50;;;;;;4222837;27;20055;-60
2021/12/09 09:37:45;;;;;;;9.52;5.57;;;18.10;60.30;;;;;;4222707;27;20088;-61
2021/12/09 09:40:11;;;;;;;8.75;5.57;;;18.20;60.10;;;;;;4222170;28;20051;-60
2021/12/09 09:42:56;;;;;;;7.53;5.65;;;18.10;59.90;;;;;;4222423;28;20536;-60
2021/12/09 09:45:17;;;;;;;11.38;6.00;;;18.10;60.30;;;;;;4214242;28;20383;-60
2021/12/09 09:47:40;;;;;;;12.00;5.50;;;18.00;60.70;;;;;;4222866;28;20058;-59
2021/12/09 09:50:03;;;;;;;11.23;5.85;;;17.80;61.20;;;;;;4210318;28;20058;-60
2021/12/09 09:52:25;;;;;;;12.32;5.65;;;17.80;61.30;;;;;;4206629;28;20051;-60
2021/12/09 09:54:50;;;;;;;11.18;6.43;;;17.80;61.50;;;;;;4206407;28;20070;-60
2021/12/09 09:57:13;;;;;;;13.98;6.78;;;17.70;61.50;;;;;;4207885;28;20056;-60
2021/12/09 09:59:34;;;;;;;9.40;5.65;;;17.60;61.70;;;;;;4214910;27;20133;-60
2021/12/09 10:01:57;;;;;;;10.98;6.30;;;17.60;61.90;;;;;;4214826;27;20059;-60
2021/12/09 10:04:27;;;;;;;10.80;6.03;;;17.40;62.20;;;;;;4225965;27;20153;-60
2021/12/09 10:06:49;;;;;;;17.63;7.80;;;17.40;62.80;;;;;;4225101;27;20044;-63
2021/12/09 10:09:13;;;;;;;11.55;6.18;;;17.30;63.10;;;;;;4225445;27;20582;-64
2021/12/09 10:11:36;;;;;;;14.52;6.70;;;17.30;63.00;;;;;;4225549;27;20491;-63
2021/12/09 10:14:09;;;;;;;14.30;5.82;;;17.30;62.90;;;;;;4207901;28;20137;-60
2021/12/09 10:16:34;;;;;;;14.77;5.95;;;17.30;62.80;;;;;;4214648;28;20079;-60
2021/12/09 10:18:56;;;;;;;15.40;6.32;;;17.30;63.40;;;;;;4225320;27;20051;-60
2021/12/09 10:21:23;;;;;;;12.23;5.65;;;17.30;63.40;;;;;;4208984;28;20062;-61
2021/12/09 10:23:50;;;;;;;15.05;5.60;;;17.40;63.00;;;;;;4209327;28;20048;-61
2021/12/09 10:26:22;;;;;;;13.52;6.25;;;17.40;62.80;;;;;;4214761;28;20062;-61
2021/12/09 10:28:51;;;;;;;11.30;6.00;;;17.40;62.40;;;;;;4208674;27;20089;-60
2021/12/09 10:31:15;;;;;;;10.45;6.18;;;17.40;62.80;;;;;;4209251;28;20153;-61
2021/12/09 10:33:58;;;;;;;16.02;6.03;;;17.30;63.10;;;;;;4217070;27;20055;-61
2021/12/09 10:36:39;;;;;;;12.00;6.43;;;17.40;62.80;;;;;;4209000;28;20059;-61
2021/12/09 10:39:15;;;;;;;9.00;5.53;;;17.30;63.10;;;;;;4224956;28;20055;-61
2021/12/09 10:41:37;;;;;;;13.48;6.03;;;17.20;63.30;;;;;;4225382;27;20428;-60
2021/12/09 10:44:00;;;;;;;11.35;5.38;;;17.20;63.90;;;;;;4223863;28;20039;-61
2021/12/09 10:46:49;;;;;;;14.68;5.75;;;17.10;63.80;;;;;;4216756;27;20050;-60
2021/12/09 10:49:13;;;;;;;17.17;6.03;;;17.10;63.40;;;;;;4217357;28;20379;-60
2021/12/09 10:51:44;;;;;;;12.07;5.25;;;17.10;64.00;;;;;;4223839;27;20126;-61
2021/12/09 10:54:06;;;;;;;8.15;5.53;;;17.10;64.30;;;;;;4209144;28;20063;-61
2021/12/09 10:56:30;;;;;;;9.55;4.97;;;17.10;65.30;;;;;;4225220;27;20047;-61
2021/12/09 10:58:52;;;;;;;11.25;4.93;;;17.10;63.50;;;;;;4224887;27;20958;-62
2021/12/09 11:01:17;;;;;;;14.20;5.45;;;17.00;64.10;;;;;;4216978;27;20070;-61
2021/12/09 11:03:41;;;;;;;12.38;5.35;;;17.00;64.80;;;;;;4211724;27;20059;-60
2021/12/09 11:06:06;;;;;;;13.25;5.80;;;16.90;65.10;;;;;;4216221;27;20100;-61
2021/12/09 11:08:34;;;;;;;13.05;6.07;;;17.00;65.20;;;;;;4224926;27;20055;-60
2021/12/09 11:11:04;;;;;;;14.25;5.07;;;17.00;65.20;;;;;;4225006;28;20175;-60
2021/12/09 11:13:37;;;;;;;10.40;4.88;;;17.20;64.80;;;;;;4208792;28;20052;-61
2021/12/09 11:15:59;;;;;;;12.70;5.13;;;17.20;64.30;;;;;;4208267;28;20101;-61
2021/12/09 11:18:32;;;;;;;12.60;5.78;;;17.30;64.30;;;;;;4210527;28;20430;-62
2021/12/09 11:20:54;;;;;;;11.70;5.90;;;17.30;63.80;;;;;;4208474;28;20064;-62
2021/12/09 11:23:28;;;;;;;9.40;4.70;;;17.30;64.00;;;;;;4212162;28;20411;-62
2021/12/09 11:25:51;;;;;;;11.07;4.97;;;17.20;63.70;;;;;;4208321;28;20407;-62
2021/12/09 11:28:13;;;;;;;11.43;4.80;;;17.20;64.40;;;;;;4209533;28;20044;-62
2021/12/09 11:31:04;;;;;;;11.75;5.57;;;17.20;64.50;;;;;;4208609;28;20079;-63
2021/12/09 11:33:35;;;;;;;18.27;6.07;;;17.20;64.20;;;;;;4222704;27;20467;-61
2021/12/09 11:35:57;;;;;;;11.20;5.28;;;17.30;64.30;;;;;;4208382;28;20059;-62
2021/12/09 11:38:33;;;;;;;8.20;4.70;;;17.30;64.20;;;;;;4223446;27;20051;-62
2021/12/09 11:40:58;;;;;;;9.00;5.35;;;17.40;63.90;;;;;;4212059;27;20456;-62
2021/12/09 11:43:24;;;;;;;12.18;4.97;;;17.50;63.70;;;;;;4213133;28;20051;-61
2021/12/09 11:45:48;;;;;;;13.75;4.82;;;17.50;63.30;;;;;;4208339;28;20521;-61
2021/12/09 11:48:13;;;;;;;10.48;4.80;;;17.50;63.30;;;;;;4208138;28;20406;-63
2021/12/09 11:50:39;;;;;;;12.80;5.28;;;17.50;63.30;;;;;;4207860;28;20044;-62
2021/12/09 11:55:19;;;;;;;6.07;5.10;;;17.30;63.60;;;;;;4130928;28;1271063;-61
2021/12/09 11:57:45;;;;;;;13.45;5.72;;;17.30;63.80;;;;;;4170442;28;20052;-62
2021/12/09 12:11:40;;;;;;;11.88;6.30;;;17.40;63.30;;;;;;4170312;28;20139;-62
2021/12/09 12:14:09;;;;;;;7.32;4.75;;;17.40;63.00;;;;;;4169800;28;20420;-62
2021/12/09 12:19:26;;;;;;;20.45;6.75;;;17.30;63.60;;;;;;4170053;28;20568;-62
2021/12/09 12:22:18;;;;;;;15.52;6.28;;;17.30;64.10;;;;;;4170234;28;20073;-63
2021/12/09 12:25:06;;;;;;;11.18;5.60;;;17.30;64.10;;;;;;4170443;28;20049;-62
2021/12/09 12:27:50;;;;;;;11.82;6.38;;;17.30;63.90;;;;;;4167952;28;20048;-62
2021/12/09 12:33:10;;;;;;;12.90;6.85;;;17.20;64.80;;;;;;4151859;28;20064;-62
2021/12/09 12:38:33;;;;;;;13.05;7.10;;;17.10;65.30;;;;;;4152461;28;20046;-63
2021/12/09 12:41:08;;;;;;;13.70;6.93;;;17.10;66.20;;;;;;4151642;28;20053;-63
2021/12/09 12:43:37;;;;;;;12.15;6.97;;;17.20;63.30;;;;;;4151177;28;20392;-64
2021/12/09 12:46:10;;;;;;;11.30;6.38;;;17.20;62.60;;;;;;4152071;28;20058;-64
2021/12/09 12:49:09;;;;;;;11.70;6.53;;;17.20;63.10;;;;;;4125587;28;20112;-62
2021/12/09 12:51:36;;;;;;;14.18;6.90;;;17.20;63.30;;;;;;4151711;28;20108;-61
2021/12/09 12:54:00;;;;;;;14.50;6.60;;;17.10;63.90;;;;;;4152026;28;20053;-61